Time;durP1;ratioP1;P1;durP2;ratioP2;P2;SDS_P1;SDS_P2;PMS_P1;PMS_P2;Temp;Humidity;BMP_temperature;BMP_pressure;BME280_temperature;BME280_humidity;BME280_pressure;Samples;Min_cycle;Max_cycle;Signal;HPM_P1;HPM_P2
2024/03/06 00:02:05;;;;;;;1.50;1.17;;;11.30;99.90;;;;;;5087215;28;20221;-77
2024/03/06 00:04:31;;;;;;;0.95;0.88;;;11.30;99.90;;;;;;5087179;28;20665;-77
2024/03/06 00:06:57;;;;;;;2.13;2.03;;;11.30;99.90;;;;;;5087187;28;20242;-77
2024/03/06 00:09:23;;;;;;;0.30;0.30;;;11.20;99.90;;;;;;5088566;28;20196;-77
2024/03/06 00:11:50;;;;;;;3.22;2.38;;;11.20;99.90;;;;;;5088580;28;20629;-78
2024/03/06 00:14:16;;;;;;;0.30;0.30;;;11.20;99.90;;;;;;5088496;28;20449;-77
2024/03/06 00:16:45;;;;;;;0.30;0.20;;;11.10;99.90;;;;;;5088007;28;20176;-78
2024/03/06 00:19:11;;;;;;;0.30;0.20;;;11.10;99.90;;;;;;5086746;28;21000;-77
2024/03/06 00:21:37;;;;;;;1.70;1.60;;;11.00;99.90;;;;;;5086787;28;20187;-77
2024/03/06 00:24:06;;;;;;;0.30;0.20;;;11.00;99.90;;;;;;5086938;28;20283;-77
2024/03/06 00:26:32;;;;;;;0.30;0.30;;;10.90;99.90;;;;;;5086339;28;20188;-77
2024/03/06 00:28:57;;;;;;;0.30;0.20;;;10.90;99.90;;;;;;5088057;28;20565;-77
2024/03/06 00:31:23;;;;;;;0.33;0.30;;;10.90;99.90;;;;;;5087660;28;20172;-77
2024/03/06 00:33:49;;;;;;;0.30;0.20;;;10.80;99.90;;;;;;5087822;28;20193;-77
2024/03/06 00:36:14;;;;;;;0.40;0.40;;;10.80;99.90;;;;;;5086400;28;20571;-77
2024/03/06 00:38:40;;;;;;;0.30;0.20;;;10.70;99.90;;;;;;5087932;28;20227;-77
2024/03/06 00:41:06;;;;;;;1.33;1.33;;;10.70;99.90;;;;;;5086616;28;20559;-77
2024/03/06 00:43:31;;;;;;;0.30;0.20;;;10.60;99.90;;;;;;5087863;28;20204;-77
2024/03/06 00:45:57;;;;;;;0.30;0.20;;;10.60;99.90;;;;;;5088157;28;20654;-77
2024/03/06 00:48:22;;;;;;;0.30;0.30;;;10.60;99.90;;;;;;5087631;28;20346;-77
2024/03/06 00:50:48;;;;;;;0.77;0.77;;;10.60;99.90;;;;;;5086929;28;20169;-77
2024/03/06 00:53:14;;;;;;;1.23;1.23;;;10.60;99.90;;;;;;5087473;28;20197;-77
2024/03/06 00:55:39;;;;;;;0.30;0.20;;;10.60;99.90;;;;;;5087552;28;20552;-77
2024/03/06 00:58:06;;;;;;;0.77;0.77;;;10.60;99.90;;;;;;5087156;28;20230;-77
2024/03/06 01:00:32;;;;;;;0.47;0.47;;;10.60;99.90;;;;;;5086197;28;20687;-77
2024/03/06 01:02:58;;;;;;;0.30;0.20;;;10.60;99.90;;;;;;5087345;28;20246;-77
2024/03/06 01:05:24;;;;;;;0.30;0.20;;;10.60;99.90;;;;;;5087260;28;20393;-77
2024/03/06 01:07:49;;;;;;;0.30;0.30;;;10.50;99.90;;;;;;5087241;28;20200;-77
2024/03/06 01:10:15;;;;;;;0.30;0.20;;;10.60;99.90;;;;;;5087473;28;20195;-79
2024/03/06 01:12:44;;;;;;;1.90;1.67;;;10.60;99.90;;;;;;5086741;28;20487;-78
2024/03/06 01:15:09;;;;;;;0.30;0.30;;;10.60;99.90;;;;;;5087520;28;20665;-79
2024/03/06 01:17:35;;;;;;;0.30;0.20;;;10.60;99.90;;;;;;5085527;28;20389;-77
2024/03/06 01:20:02;;;;;;;0.30;0.20;;;10.50;99.90;;;;;;5087296;28;20820;-77
2024/03/06 01:22:28;;;;;;;1.27;0.82;;;10.60;99.90;;;;;;5085584;28;20406;-76
2024/03/06 01:24:53;;;;;;;0.30;0.20;;;10.50;99.90;;;;;;5087284;28;20169;-79
2024/03/06 01:27:19;;;;;;;0.30;0.20;;;10.50;99.90;;;;;;5087195;28;20176;-76
2024/03/06 01:29:45;;;;;;;1.80;1.70;;;10.50;99.90;;;;;;5086971;28;20553;-77
2024/03/06 01:32:10;;;;;;;0.30;0.20;;;10.40;99.90;;;;;;5086775;28;20173;-76
2024/03/06 01:34:37;;;;;;;0.30;0.20;;;10.40;99.90;;;;;;5086959;28;20181;-76
2024/03/06 01:37:03;;;;;;;0.40;0.40;;;10.40;99.90;;;;;;5086574;28;20168;-76
2024/03/06 01:39:28;;;;;;;0.30;0.20;;;10.40;99.90;;;;;;5084360;28;20875;-76
2024/03/06 01:41:54;;;;;;;0.30;0.20;;;10.30;99.90;;;;;;5085600;28;20172;-76
2024/03/06 01:44:19;;;;;;;0.30;0.20;;;10.30;99.90;;;;;;5085432;28;20477;-76
2024/03/06 01:46:46;;;;;;;3.90;3.07;;;10.30;99.90;;;;;;5086504;28;20169;-77
2024/03/06 01:49:14;;;;;;;9.60;9.20;;;10.20;99.90;;;;;;5087055;28;20188;-76
2024/03/06 01:51:49;;;;;;;1.02;1.00;;;10.20;99.90;;;;;;5086170;28;20195;-76
2024/03/06 01:54:16;;;;;;;0.50;0.30;;;10.10;99.90;;;;;;5085578;28;20196;-77
2024/03/06 01:56:46;;;;;;;0.30;0.20;;;10.10;99.90;;;;;;5086207;28;20169;-76
2024/03/06 01:59:13;;;;;;;0.30;0.20;;;10.10;99.90;;;;;;5085061;28;20640;-76
2024/03/06 02:01:40;;;;;;;0.30;0.30;;;10.10;99.90;;;;;;5084797;28;20176;-76
2024/03/06 02:04:09;;;;;;;0.73;0.73;;;10.10;99.90;;;;;;5086450;28;20673;-76
2024/03/06 02:06:35;;;;;;;1.67;1.58;;;10.10;99.90;;;;;;5084662;28;20187;-77
2024/03/06 02:09:03;;;;;;;0.93;0.93;;;10.00;99.90;;;;;;5086382;28;20257;-79
2024/03/06 02:11:29;;;;;;;0.30;0.20;;;10.00;99.90;;;;;;5086001;28;20173;-76
2024/03/06 02:13:55;;;;;;;0.30;0.20;;;10.00;99.90;;;;;;5084897;28;20521;-76
2024/03/06 02:16:20;;;;;;;0.30;0.20;;;10.00;99.90;;;;;;5086222;28;20204;-76
2024/03/06 02:18:53;;;;;;;1.80;1.70;;;9.90;99.90;;;;;;5086112;28;20251;-77
2024/03/06 02:21:21;;;;;;;0.30;0.20;;;9.90;99.90;;;;;;5085795;28;20700;-77
2024/03/06 02:23:47;;;;;;;0.30;0.20;;;9.90;99.90;;;;;;5086096;28;20211;-76
2024/03/06 02:26:13;;;;;;;0.30;0.20;;;9.90;99.90;;;;;;5084477;28;20637;-76
2024/03/06 02:28:39;;;;;;;0.30;0.20;;;9.90;99.90;;;;;;5084691;28;20253;-76
2024/03/06 02:31:06;;;;;;;0.60;0.60;;;9.80;99.90;;;;;;5085496;28;20172;-76
2024/03/06 02:33:34;;;;;;;0.73;0.73;;;9.80;99.90;;;;;;5084058;28;20205;-77
2024/03/06 02:35:59;;;;;;;0.32;0.25;;;9.80;99.90;;;;;;5084448;28;20184;-76
2024/03/06 02:38:25;;;;;;;0.30;0.20;;;9.70;99.90;;;;;;5085501;28;20216;-76
2024/03/06 02:40:51;;;;;;;0.30;0.20;;;9.70;99.90;;;;;;5084384;28;20180;-77
2024/03/06 02:43:16;;;;;;;0.30;0.20;;;9.70;99.90;;;;;;5085443;28;20200;-76
2024/03/06 02:45:42;;;;;;;0.30;0.30;;;9.70;99.90;;;;;;5084352;28;20259;-76
2024/03/06 02:48:08;;;;;;;0.40;0.37;;;9.60;99.90;;;;;;5085768;28;20196;-76
2024/03/06 02:50:34;;;;;;;0.30;0.20;;;9.60;99.90;;;;;;5084130;28;20179;-77
2024/03/06 02:53:00;;;;;;;1.20;1.20;;;9.60;99.90;;;;;;5082884;28;20551;-76
2024/03/06 02:55:25;;;;;;;0.30;0.20;;;9.50;99.90;;;;;;5084218;28;20331;-77
2024/03/06 02:57:51;;;;;;;0.60;0.60;;;9.50;99.90;;;;;;5083887;28;20748;-76
2024/03/06 03:00:17;;;;;;;0.40;0.20;;;9.40;99.90;;;;;;5084009;28;20242;-77
2024/03/06 03:02:43;;;;;;;0.30;0.20;;;9.40;99.90;;;;;;5085050;28;20199;-79
2024/03/06 03:05:09;;;;;;;0.40;0.20;;;9.40;99.90;;;;;;5083988;28;20208;-76
2024/03/06 03:07:34;;;;;;;0.30;0.20;;;9.30;99.90;;;;;;5085075;28;20219;-79
2024/03/06 03:10:00;;;;;;;0.40;0.40;;;9.30;99.90;;;;;;5083993;28;20188;-78
2024/03/06 03:12:26;;;;;;;0.30;0.20;;;9.40;99.90;;;;;;5084693;28;20686;-76
2024/03/06 03:14:51;;;;;;;1.03;0.87;;;9.30;99.90;;;;;;5084241;28;20165;-76
2024/03/06 03:17:19;;;;;;;0.30;0.20;;;9.30;99.90;;;;;;5084860;28;20364;-76
2024/03/06 03:19:45;;;;;;;0.30;0.20;;;9.30;99.90;;;;;;5085537;28;20216;-76
2024/03/06 03:22:11;;;;;;;0.30;0.20;;;9.30;99.90;;;;;;5084912;28;20244;-76
2024/03/06 03:24:39;;;;;;;0.30;0.20;;;9.20;99.90;;;;;;5085684;28;20226;-76
2024/03/06 03:27:06;;;;;;;0.30;0.20;;;9.20;99.90;;;;;;5085035;28;20970;-76
2024/03/06 03:29:32;;;;;;;0.30;0.20;;;9.20;99.90;;;;;;5083833;28;20597;-76
2024/03/06 03:31:58;;;;;;;2.03;1.92;;;9.10;99.90;;;;;;5083402;28;20264;-76
2024/03/06 03:34:23;;;;;;;0.30;0.20;;;9.10;99.90;;;;;;5085346;28;20333;-77
2024/03/06 03:36:49;;;;;;;1.77;1.27;;;9.10;99.90;;;;;;5083609;28;20686;-76
2024/03/06 03:39:16;;;;;;;0.30;0.30;;;9.10;99.90;;;;;;5083496;28;20226;-76
2024/03/06 03:41:48;;;;;;;0.30;0.20;;;9.10;99.90;;;;;;5084967;28;20193;-76
2024/03/06 03:44:15;;;;;;;0.30;0.20;;;9.10;99.90;;;;;;5083921;28;20530;-77
2024/03/06 03:46:41;;;;;;;0.30;0.20;;;9.00;99.90;;;;;;5083454;28;20176;-76
2024/03/06 03:49:08;;;;;;;0.30;0.20;;;9.00;99.90;;;;;;5085310;28;20692;-76
2024/03/06 03:51:35;;;;;;;0.30;0.20;;;9.00;99.90;;;;;;5084848;28;20167;-77
2024/03/06 03:54:01;;;;;;;0.30;0.20;;;9.10;99.90;;;;;;5083718;28;20208;-76
2024/03/06 03:56:27;;;;;;;0.30;0.20;;;9.10;99.90;;;;;;5083767;28;20377;-77
2024/03/06 03:58:52;;;;;;;0.30;0.20;;;9.20;99.90;;;;;;5085222;28;20480;-76
2024/03/06 04:01:18;;;;;;;0.30;0.30;;;9.10;99.90;;;;;;5084452;28;20226;-79
2024/03/06 04:03:44;;;;;;;0.30;0.20;;;9.10;99.90;;;;;;5088784;28;20235;-76
2024/03/06 04:06:10;;;;;;;0.30;0.30;;;9.10;99.90;;;;;;5088582;28;20214;-79
2024/03/06 04:08:37;;;;;;;0.30;0.20;;;9.10;99.90;;;;;;5088700;28;20484;-76
2024/03/06 04:11:04;;;;;;;0.30;0.20;;;9.10;99.90;;;;;;5087041;28;20515;-76
2024/03/06 04:13:29;;;;;;;0.30;0.25;;;9.10;99.90;;;;;;5088264;28;20330;-76
2024/03/06 04:15:55;;;;;;;0.30;0.20;;;9.10;99.90;;;;;;5087377;28;20200;-77
2024/03/06 04:18:21;;;;;;;0.30;0.20;;;9.10;99.90;;;;;;5086744;28;20216;-76
2024/03/06 04:20:47;;;;;;;0.30;0.20;;;9.10;99.90;;;;;;5086997;28;20409;-76
2024/03/06 04:23:13;;;;;;;0.30;0.20;;;9.10;99.90;;;;;;5088202;28;20533;-76
2024/03/06 04:25:39;;;;;;;0.30;0.30;;;9.10;99.90;;;;;;5087016;28;20464;-76
2024/03/06 04:28:07;;;;;;;0.30;0.20;;;9.10;99.90;;;;;;5086268;28;20673;-77
2024/03/06 04:30:33;;;;;;;0.30;0.20;;;9.10;99.90;;;;;;5087161;28;20179;-77
2024/03/06 04:32:59;;;;;;;0.30;0.20;;;9.00;99.90;;;;;;5087932;28;20552;-77
2024/03/06 04:35:25;;;;;;;0.30;0.20;;;9.00;99.90;;;;;;5086564;28;20391;-77
2024/03/06 04:37:50;;;;;;;0.30;0.20;;;9.00;99.90;;;;;;5087798;28;20589;-77
2024/03/06 04:40:17;;;;;;;0.30;0.20;;;9.00;99.90;;;;;;5087938;28;20402;-77
2024/03/06 04:42:46;;;;;;;0.30;0.20;;;8.90;99.90;;;;;;5087808;28;20224;-77
2024/03/06 04:45:15;;;;;;;0.30;0.20;;;8.90;99.90;;;;;;5087898;28;20168;-77
2024/03/06 04:47:41;;;;;;;0.30;0.20;;;8.90;99.90;;;;;;5087820;28;20207;-76
2024/03/06 04:50:11;;;;;;;0.30;0.20;;;8.90;99.90;;;;;;5086509;28;20549;-76
2024/03/06 04:52:40;;;;;;;0.40;0.30;;;8.90;99.90;;;;;;5086093;28;21034;-76
2024/03/06 04:55:07;;;;;;;0.30;0.20;;;8.90;99.90;;;;;;5085430;28;20177;-76
2024/03/06 04:57:34;;;;;;;0.30;0.20;;;8.80;99.90;;;;;;5087063;28;20352;-76
2024/03/06 05:00:00;;;;;;;0.30;0.20;;;8.80;99.90;;;;;;5085801;28;20269;-77
2024/03/06 05:02:26;;;;;;;0.30;0.20;;;8.70;99.90;;;;;;5085703;28;20173;-76
2024/03/06 05:04:51;;;;;;;2.27;2.20;;;8.60;99.90;;;;;;5083349;28;20452;-76
2024/03/06 05:07:17;;;;;;;0.30;0.20;;;8.50;99.90;;;;;;5087775;28;20671;-76
2024/03/06 05:09:43;;;;;;;0.30;0.30;;;8.50;99.90;;;;;;5087206;28;20181;-76
2024/03/06 05:12:08;;;;;;;0.40;0.20;;;8.40;99.90;;;;;;5090319;28;20198;-76
2024/03/06 05:14:34;;;;;;;0.30;0.20;;;8.40;99.90;;;;;;5086229;28;20226;-76
2024/03/06 05:17:01;;;;;;;15.02;3.92;;;8.40;99.90;;;;;;5085337;28;20714;-76
2024/03/06 05:19:32;;;;;;;0.30;0.20;;;8.40;99.90;;;;;;5087082;28;20224;-76
2024/03/06 05:21:59;;;;;;;0.30;0.20;;;8.30;99.90;;;;;;5084348;28;20204;-76
2024/03/06 05:24:24;;;;;;;0.30;0.20;;;8.30;99.90;;;;;;5083224;28;20295;-77
2024/03/06 05:26:50;;;;;;;0.30;0.27;;;8.30;99.90;;;;;;5086527;28;20326;-76
2024/03/06 05:29:16;;;;;;;0.30;0.30;;;8.30;99.90;;;;;;5067989;28;20689;-76
2024/03/06 05:31:42;;;;;;;0.30;0.20;;;8.30;99.90;;;;;;5068776;28;20675;-76
2024/03/06 05:34:08;;;;;;;0.30;0.20;;;8.30;99.90;;;;;;5074721;28;20318;-76
2024/03/06 05:36:33;;;;;;;0.30;0.20;;;8.30;99.90;;;;;;5084840;28;20184;-76
2024/03/06 05:38:59;;;;;;;0.30;0.20;;;8.30;99.90;;;;;;5083978;28;20323;-78
2024/03/06 05:41:25;;;;;;;0.30;0.20;;;8.30;99.90;;;;;;5086102;28;20169;-76
2024/03/06 05:43:50;;;;;;;1.40;1.40;;;8.30;99.90;;;;;;5078223;28;20207;-76
2024/03/06 05:46:16;;;;;;;1.27;1.27;;;8.20;99.90;;;;;;5079031;28;20573;-77
2024/03/06 05:48:42;;;;;;;0.30;0.20;;;8.20;99.90;;;;;;5085595;28;20196;-79
2024/03/06 05:51:08;;;;;;;0.30;0.30;;;8.20;99.90;;;;;;5086560;28;20172;-76
2024/03/06 05:53:42;;;;;;;0.30;0.20;;;8.30;99.90;;;;;;5085464;28;20223;-76
2024/03/06 05:56:08;;;;;;;0.30;0.20;;;8.30;99.90;;;;;;5085770;28;20416;-76
2024/03/06 05:58:34;;;;;;;0.30;0.20;;;8.30;99.90;;;;;;5074874;28;20247;-76
2024/03/06 06:01:01;;;;;;;0.30;0.20;;;8.30;99.90;;;;;;5064829;28;20513;-77
2024/03/06 06:03:28;;;;;;;8.98;8.57;;;8.30;99.90;;;;;;5081767;28;20708;-76
2024/03/06 06:05:54;;;;;;;0.30;0.20;;;8.40;99.90;;;;;;5078712;28;20609;-77
2024/03/06 06:08:20;;;;;;;0.30;0.20;;;8.40;99.90;;;;;;5084105;28;20676;-79
2024/03/06 06:10:45;;;;;;;0.30;0.20;;;8.50;99.90;;;;;;5085293;28;20188;-76
2024/03/06 06:13:11;;;;;;;0.30;0.20;;;8.60;99.90;;;;;;5075443;28;20576;-76
2024/03/06 06:15:37;;;;;;;0.30;0.20;;;8.70;99.90;;;;;;5075340;28;20177;-76
2024/03/06 06:18:03;;;;;;;0.90;0.87;;;8.70;99.90;;;;;;5075822;28;20206;-76
2024/03/06 06:20:28;;;;;;;0.57;0.57;;;8.70;99.90;;;;;;5075708;28;20177;-76
2024/03/06 06:22:54;;;;;;;0.30;0.20;;;8.90;99.90;;;;;;5082181;28;20250;-77
2024/03/06 06:25:20;;;;;;;0.30;0.20;;;8.90;99.90;;;;;;5084607;28;20639;-77
2024/03/06 06:27:46;;;;;;;0.30;0.20;;;9.00;99.90;;;;;;5069893;28;20299;-76
2024/03/06 06:30:12;;;;;;;0.30;0.30;;;9.00;99.90;;;;;;5080027;28;20215;-76
2024/03/06 06:32:38;;;;;;;0.30;0.20;;;9.10;99.90;;;;;;5080963;28;20211;-76
2024/03/06 06:35:05;;;;;;;0.30;0.20;;;9.20;99.90;;;;;;5075593;28;20459;-76
2024/03/06 06:37:30;;;;;;;0.30;0.20;;;9.20;99.90;;;;;;5068759;28;20265;-76
2024/03/06 06:39:56;;;;;;;0.30;0.20;;;9.30;99.90;;;;;;5077971;28;20583;-76
2024/03/06 06:42:22;;;;;;;0.40;0.30;;;9.30;99.90;;;;;;5081938;28;20861;-76
2024/03/06 06:44:47;;;;;;;0.30;0.20;;;9.40;99.90;;;;;;5074145;28;20564;-76
2024/03/06 06:47:13;;;;;;;0.30;0.20;;;9.40;99.90;;;;;;5075331;28;20275;-76
2024/03/06 06:49:39;;;;;;;0.30;0.20;;;9.50;99.90;;;;;;5074773;28;20545;-77
2024/03/06 06:52:04;;;;;;;0.30;0.20;;;9.50;99.90;;;;;;5077315;28;20279;-77
2024/03/06 06:54:30;;;;;;;1.17;1.00;;;9.60;99.90;;;;;;5079524;28;20205;-76
2024/03/06 06:56:56;;;;;;;0.30;0.20;;;9.70;99.90;;;;;;5072608;28;20398;-77
2024/03/06 06:59:23;;;;;;;12.07;11.47;;;9.80;99.90;;;;;;5078123;28;20215;-76
2024/03/06 07:01:48;;;;;;;0.30;0.20;;;9.90;99.90;;;;;;5078364;28;20200;-76
2024/03/06 07:04:16;;;;;;;0.30;0.20;;;10.00;99.90;;;;;;5078256;28;20653;-77
2024/03/06 07:06:42;;;;;;;3.05;2.25;;;10.10;99.90;;;;;;5075624;28;20437;-76
2024/03/06 07:09:09;;;;;;;0.40;0.20;;;10.20;99.90;;;;;;5074373;28;20303;-80
2024/03/06 07:11:35;;;;;;;0.30;0.30;;;10.30;99.90;;;;;;5076389;28;20169;-77
2024/03/06 07:14:00;;;;;;;0.30;0.20;;;10.50;99.90;;;;;;5076291;28;20232;-76
2024/03/06 07:16:27;;;;;;;1.05;1.05;;;10.60;99.90;;;;;;5070500;28;20232;-76
2024/03/06 07:18:53;;;;;;;0.30;0.20;;;10.70;99.90;;;;;;5075814;28;20304;-76
2024/03/06 07:21:19;;;;;;;0.30;0.20;;;10.90;99.90;;;;;;5078923;28;20396;-77
2024/03/06 07:23:44;;;;;;;0.30;0.20;;;11.00;99.90;;;;;;5068451;28;20693;-77
2024/03/06 07:26:10;;;;;;;0.40;0.40;;;11.10;99.90;;;;;;5066291;28;20233;-77
2024/03/06 07:28:37;;;;;;;18.53;5.63;;;11.20;99.90;;;;;;5068152;28;20270;-77
2024/03/06 07:31:03;;;;;;;0.40;0.30;;;11.40;99.90;;;;;;5076490;28;20249;-76
2024/03/06 07:33:30;;;;;;;0.30;0.20;;;11.50;99.90;;;;;;5080731;28;20196;-78
2024/03/06 07:35:56;;;;;;;0.30;0.20;;;11.60;99.90;;;;;;5068673;28;20371;-77
2024/03/06 07:38:23;;;;;;;1.70;1.60;;;11.70;99.90;;;;;;5073896;28;20455;-77
2024/03/06 07:40:48;;;;;;;0.30;0.20;;;11.80;99.90;;;;;;5073890;28;20406;-77
2024/03/06 07:43:14;;;;;;;0.53;0.53;;;12.00;99.90;;;;;;5072639;28;20202;-77
2024/03/06 07:45:40;;;;;;;3.20;2.20;;;12.10;99.90;;;;;;5076659;28;20216;-77
2024/03/06 07:48:06;;;;;;;0.30;0.20;;;12.20;99.90;;;;;;5081513;28;20705;-77
2024/03/06 07:50:32;;;;;;;2.00;0.83;;;12.40;99.90;;;;;;5077612;28;20425;-77
2024/03/06 07:52:58;;;;;;;0.30;0.20;;;12.60;99.90;;;;;;5078570;28;20201;-77
2024/03/06 07:55:24;;;;;;;1.30;1.27;;;12.80;99.90;;;;;;5082799;28;20694;-77
2024/03/06 07:57:49;;;;;;;2.10;2.00;;;13.00;99.90;;;;;;5080724;28;20928;-77
2024/03/06 08:00:19;;;;;;;0.30;0.20;;;13.10;99.90;;;;;;5072003;28;20222;-77
2024/03/06 08:02:51;;;;;;;1.03;1.03;;;13.30;99.90;;;;;;5074781;28;20236;-77
2024/03/06 08:05:17;;;;;;;0.30;0.20;;;13.40;99.90;;;;;;5071719;28;21022;-77
2024/03/06 08:07:44;;;;;;;1.37;1.37;;;13.60;99.90;;;;;;5075992;28;20473;-77
2024/03/06 08:10:13;;;;;;;2.50;2.30;;;13.80;99.90;;;;;;5073302;28;21005;-77
2024/03/06 08:12:42;;;;;;;2.57;2.40;;;14.10;99.90;;;;;;5077391;28;20472;-78
2024/03/06 08:15:11;;;;;;;2.40;1.80;;;14.40;99.90;;;;;;5073209;28;20421;-77
2024/03/06 08:17:41;;;;;;;0.40;0.30;;;14.70;99.90;;;;;;5076477;28;21026;-78
2024/03/06 08:20:08;;;;;;;1.70;1.60;;;14.80;99.90;;;;;;5069483;28;20497;-78
2024/03/06 08:22:42;;;;;;;0.83;0.83;;;15.00;99.90;;;;;;5083353;28;21065;-77
2024/03/06 08:25:09;;;;;;;0.33;0.20;;;15.30;99.90;;;;;;5086665;28;20816;-77
2024/03/06 08:27:36;;;;;;;0.40;0.20;;;15.70;99.90;;;;;;5085979;28;20873;-77
2024/03/06 08:30:07;;;;;;;1.10;1.07;;;16.00;99.90;;;;;;5082354;28;20707;-78
2024/03/06 08:32:35;;;;;;;0.47;0.47;;;16.40;99.90;;;;;;5083267;28;20668;-77
2024/03/06 08:35:13;;;;;;;0.30;0.20;;;16.60;99.90;;;;;;5067574;28;20426;-78
2024/03/06 08:37:39;;;;;;;0.30;0.20;;;16.60;99.90;;;;;;5074295;28;21041;-78
2024/03/06 08:40:14;;;;;;;0.97;0.90;;;16.60;99.90;;;;;;5085045;28;20453;-78
2024/03/06 08:42:41;;;;;;;0.30;0.20;;;16.50;99.90;;;;;;5081855;28;20884;-77
2024/03/06 08:45:07;;;;;;;0.30;0.20;;;16.40;99.90;;;;;;5085048;28;20409;-78
2024/03/06 08:47:34;;;;;;;1.13;0.83;;;16.30;99.90;;;;;;5081088;28;20445;-78
2024/03/06 08:49:59;;;;;;;0.80;0.80;;;16.20;99.90;;;;;;5085806;28;20815;-77
2024/03/06 08:52:25;;;;;;;0.30;0.20;;;16.10;99.90;;;;;;5083609;28;20413;-78
2024/03/06 08:54:51;;;;;;;0.67;0.67;;;16.00;99.90;;;;;;5086681;28;20176;-78
2024/03/06 08:57:17;;;;;;;0.53;0.50;;;15.90;99.90;;;;;;5076193;28;20670;-78
2024/03/06 08:59:43;;;;;;;0.30;0.30;;;15.80;99.90;;;;;;5068186;28;20459;-78
2024/03/06 09:02:17;;;;;;;0.50;0.50;;;15.70;99.90;;;;;;5072672;28;20680;-78
2024/03/06 09:04:43;;;;;;;0.30;0.20;;;15.60;99.90;;;;;;5071997;28;20740;-77
2024/03/06 09:07:09;;;;;;;1.27;1.27;;;15.60;99.90;;;;;;5074730;28;20892;-78
2024/03/06 09:09:36;;;;;;;0.30;0.20;;;15.60;99.90;;;;;;5078768;28;20441;-78
2024/03/06 09:12:05;;;;;;;0.30;0.30;;;15.50;99.90;;;;;;5066922;28;20939;-78
2024/03/06 09:14:34;;;;;;;0.30;0.20;;;15.50;99.90;;;;;;5071955;28;20465;-77
2024/03/06 09:17:01;;;;;;;4.17;2.47;;;15.40;99.90;;;;;;5072997;28;20489;-77
2024/03/06 09:19:27;;;;;;;0.47;0.47;;;15.30;99.90;;;;;;5082177;28;20514;-77
2024/03/06 09:21:53;;;;;;;0.40;0.20;;;15.30;99.90;;;;;;5076810;28;20417;-78
2024/03/06 09:24:20;;;;;;;0.30;0.20;;;15.30;99.90;;;;;;5066652;28;20841;-77
2024/03/06 09:26:47;;;;;;;0.40;0.20;;;15.20;99.90;;;;;;5072194;28;20785;-78
2024/03/06 09:29:13;;;;;;;0.30;0.20;;;15.20;99.90;;;;;;5072623;28;20457;-78
2024/03/06 09:31:39;;;;;;;0.30;0.20;;;15.20;99.90;;;;;;5074275;28;20478;-78
2024/03/06 09:34:04;;;;;;;0.30;0.20;;;15.20;99.90;;;;;;5078279;28;20451;-77
2024/03/06 09:36:30;;;;;;;0.50;0.50;;;15.20;99.90;;;;;;5067026;28;20551;-77
2024/03/06 09:38:55;;;;;;;0.67;0.67;;;15.20;99.90;;;;;;5076215;28;20219;-78
2024/03/06 09:41:22;;;;;;;0.30;0.20;;;15.20;99.90;;;;;;5079067;28;20194;-77
2024/03/06 09:43:48;;;;;;;17.50;2.73;;;15.20;99.90;;;;;;5058852;28;20201;-78
2024/03/06 09:46:14;;;;;;;0.30;0.30;;;15.20;99.90;;;;;;5072650;28;20435;-78
2024/03/06 09:48:47;;;;;;;1.73;1.63;;;15.10;99.90;;;;;;5064042;28;21013;-77
2024/03/06 09:51:13;;;;;;;2.57;2.40;;;15.10;99.90;;;;;;5074319;28;20744;-78
2024/03/06 09:53:40;;;;;;;2.10;2.00;;;15.10;99.90;;;;;;5081978;28;20896;-78
2024/03/06 09:56:06;;;;;;;0.40;0.30;;;15.10;99.90;;;;;;5078876;28;20667;-78
2024/03/06 09:58:32;;;;;;;0.30;0.20;;;15.10;99.90;;;;;;5093536;28;20509;-78
2024/03/06 10:01:06;;;;;;;0.30;0.20;;;15.10;99.90;;;;;;5075074;28;21012;-78
2024/03/06 10:03:33;;;;;;;0.40;0.30;;;15.10;99.90;;;;;;5096643;28;20786;-78
2024/03/06 10:05:59;;;;;;;0.50;0.50;;;15.20;99.90;;;;;;5071817;28;20410;-78
2024/03/06 10:08:26;;;;;;;0.30;0.20;;;15.30;99.90;;;;;;5064524;28;20457;-78
2024/03/06 10:10:52;;;;;;;0.70;0.70;;;15.50;99.90;;;;;;5067676;28;20429;-78
2024/03/06 10:13:18;;;;;;;1.53;1.47;;;15.70;99.90;;;;;;5074906;28;20515;-78
2024/03/06 10:16:02;;;;;;;1.57;1.50;;;15.80;99.90;;;;;;5078778;28;20310;-78
2024/03/06 10:18:29;;;;;;;0.40;0.30;;;15.80;99.90;;;;;;5081761;28;20942;-78
2024/03/06 10:20:55;;;;;;;0.30;0.20;;;16.00;99.90;;;;;;5083793;28;20398;-78
2024/03/06 10:23:21;;;;;;;0.30;0.20;;;16.00;99.90;;;;;;5082781;28;20440;-78
2024/03/06 10:25:52;;;;;;;0.30;0.20;;;16.00;99.90;;;;;;5075073;28;20962;-78
2024/03/06 10:28:23;;;;;;;0.30;0.30;;;16.00;99.90;;;;;;5080219;28;20207;-78
2024/03/06 10:30:49;;;;;;;0.30;0.20;;;16.00;99.90;;;;;;5076188;28;20433;-78
2024/03/06 10:33:18;;;;;;;0.30;0.20;;;16.00;99.90;;;;;;5079581;28;20527;-78
2024/03/06 10:35:46;;;;;;;0.40;0.20;;;16.00;99.90;;;;;;5082747;28;20443;-78
2024/03/06 10:38:12;;;;;;;0.30;0.20;;;16.00;99.90;;;;;;5080951;28;20436;-78
2024/03/06 10:40:40;;;;;;;0.30;0.27;;;16.00;99.90;;;;;;5075635;28;20478;-78
2024/03/06 10:43:07;;;;;;;6.43;2.83;;;16.00;99.90;;;;;;5083288;28;20737;-79
2024/03/06 10:45:48;;;;;;;0.30;0.30;;;16.00;99.90;;;;;;5081067;28;20447;-78
2024/03/06 10:48:15;;;;;;;0.30;0.20;;;16.10;99.90;;;;;;5079818;28;20506;-79
2024/03/06 10:50:45;;;;;;;0.30;0.30;;;16.20;99.90;;;;;;5081094;28;20984;-78
2024/03/06 10:53:17;;;;;;;0.40;0.40;;;16.30;99.90;;;;;;5072111;28;21329;-77
2024/03/06 10:55:46;;;;;;;0.40;0.20;;;16.50;99.90;;;;;;5077557;28;20429;-78
2024/03/06 10:58:12;;;;;;;3.50;3.30;;;16.80;99.90;;;;;;5077915;28;20460;-78
2024/03/06 11:00:40;;;;;;;0.40;0.20;;;16.90;99.90;;;;;;5075850;28;20465;-77
2024/03/06 11:03:08;;;;;;;0.97;0.97;;;17.10;99.90;;;;;;5075344;28;20465;-77
2024/03/06 11:05:36;;;;;;;0.30;0.30;;;17.30;99.90;;;;;;5072795;28;20508;-77
2024/03/06 11:08:02;;;;;;;0.40;0.20;;;17.50;99.90;;;;;;5069495;28;20596;-78
2024/03/06 11:10:33;;;;;;;0.30;0.30;;;17.70;99.90;;;;;;5070101;28;21088;-76
2024/03/06 11:12:59;;;;;;;0.30;0.20;;;17.80;99.90;;;;;;5080753;28;20647;-76
2024/03/06 11:15:24;;;;;;;0.30;0.20;;;17.90;99.90;;;;;;5083078;28;21100;-78
2024/03/06 11:17:50;;;;;;;2.93;2.83;;;17.90;99.90;;;;;;5082448;28;20815;-77
2024/03/06 11:20:19;;;;;;;1.37;0.60;;;18.00;99.90;;;;;;5081463;28;21149;-77
2024/03/06 11:23:08;;;;;;;0.67;0.60;;;18.10;99.90;;;;;;5080988;28;20208;-78
2024/03/06 11:25:50;;;;;;;0.50;0.50;;;18.10;99.90;;;;;;5082880;28;20636;-76
2024/03/06 11:28:37;;;;;;;0.30;0.20;;;18.20;99.90;;;;;;5094054;28;20664;-78
2024/03/06 11:31:13;;;;;;;0.30;0.20;;;18.20;99.90;;;;;;5083826;28;20723;-76
2024/03/06 11:33:44;;;;;;;0.50;0.50;;;18.20;99.90;;;;;;5082059;28;21184;-76
2024/03/06 11:36:25;;;;;;;0.40;0.30;;;18.30;99.90;;;;;;5085547;28;20488;-77
2024/03/06 11:39:05;;;;;;;0.60;0.60;;;18.40;99.90;;;;;;5082160;28;20482;-78
2024/03/06 11:41:32;;;;;;;2.90;2.67;;;18.30;99.90;;;;;;5078013;28;20445;-76
2024/03/06 11:44:00;;;;;;;1.37;0.83;;;18.40;99.90;;;;;;5078108;28;20486;-76
2024/03/06 11:46:44;;;;;;;0.87;0.87;;;18.40;99.90;;;;;;5073715;28;20450;-77
2024/03/06 11:49:28;;;;;;;0.30;0.20;;;18.60;99.90;;;;;;5067026;28;20513;-78
2024/03/06 11:51:56;;;;;;;2.60;2.50;;;18.70;99.90;;;;;;5070212;28;21014;-78
2024/03/06 11:54:26;;;;;;;8.53;4.43;;;18.80;99.90;;;;;;5071083;28;21020;-77
2024/03/06 11:56:54;;;;;;;3.40;2.60;;;18.80;99.90;;;;;;5071135;28;20674;-78
2024/03/06 11:59:24;;;;;;;1.37;1.37;;;18.90;99.90;;;;;;5075074;28;20530;-78
2024/03/06 12:01:54;;;;;;;1.47;1.47;;;18.90;99.90;;;;;;5077692;28;20802;-78
2024/03/06 12:04:22;;;;;;;0.30;0.20;;;19.00;99.90;;;;;;5081934;28;20456;-78
2024/03/06 12:06:48;;;;;;;0.40;0.20;;;19.00;99.90;;;;;;5083401;28;20541;-78
2024/03/06 12:09:17;;;;;;;0.30;0.20;;;19.00;99.90;;;;;;5081738;28;20504;-78
2024/03/06 12:11:43;;;;;;;0.30;0.20;;;19.00;99.90;;;;;;5098514;28;20432;-78
2024/03/06 12:14:17;;;;;;;1.10;0.80;;;19.00;99.90;;;;;;5073695;28;20493;-79
2024/03/06 12:16:44;;;;;;;0.40;0.30;;;19.10;99.90;;;;;;5081918;28;20421;-79
2024/03/06 12:19:10;;;;;;;0.30;0.20;;;19.10;99.90;;;;;;5075896;28;20536;-77
2024/03/06 12:21:38;;;;;;;0.40;0.20;;;19.10;99.90;;;;;;5079894;28;20417;-78
2024/03/06 12:24:05;;;;;;;2.10;1.13;;;19.20;99.90;;;;;;5075816;28;21076;-77
2024/03/06 12:26:32;;;;;;;0.40;0.40;;;19.20;99.90;;;;;;5074264;28;21001;-78
2024/03/06 12:29:08;;;;;;;0.30;0.30;;;19.10;99.90;;;;;;5076163;28;20471;-79
2024/03/06 12:31:42;;;;;;;0.87;0.87;;;19.20;99.90;;;;;;5075223;28;20481;-79
2024/03/06 12:34:09;;;;;;;0.30;0.20;;;19.20;99.90;;;;;;5080843;28;20437;-79
2024/03/06 12:36:35;;;;;;;3.70;2.00;;;19.20;99.90;;;;;;5079611;28;20945;-80
2024/03/06 12:39:02;;;;;;;0.53;0.53;;;19.20;99.90;;;;;;5083869;28;20476;-77
2024/03/06 12:41:29;;;;;;;0.30;0.20;;;19.20;99.90;;;;;;5080491;28;20446;-79
2024/03/06 12:43:56;;;;;;;0.70;0.70;;;19.10;99.90;;;;;;5077236;28;20463;-78
2024/03/06 12:46:26;;;;;;;0.30;0.20;;;19.10;99.90;;;;;;5084245;28;20465;-77
2024/03/06 12:48:52;;;;;;;0.57;0.57;;;19.10;99.90;;;;;;5084866;28;20452;-79
2024/03/06 12:51:18;;;;;;;0.30;0.20;;;19.00;99.90;;;;;;5084063;28;20454;-78